createdAt,value
2023-12-13T00:57:44.084Z,8.5
2023-12-13T03:07:46.731Z,7.7
2023-12-13T03:17:47.028Z,7.7
2023-12-13T03:27:47.097Z,7.6
2023-12-13T03:47:47.761Z,7.7
2023-12-13T03:57:47.690Z,7.7
2023-12-13T04:07:47.964Z,7.7
2023-12-13T04:17:48.098Z,7.8
2023-12-13T04:27:48.330Z,7.8
2023-12-13T04:37:48.578Z,7.8
2023-12-13T04:47:48.773Z,7.9
2023-12-13T04:57:48.933Z,7.9
2023-12-13T05:07:49.113Z,7.9
2023-12-13T05:17:49.316Z,8
2023-12-13T05:27:49.509Z,8
2023-12-13T05:37:51.484Z,8
2023-12-13T05:47:49.933Z,8.1
2023-12-13T05:57:50.126Z,8.1
2023-12-13T06:07:50.345Z,8
2023-12-13T06:17:50.573Z,8.1
2023-12-13T06:27:50.703Z,8
2023-12-13T06:37:50.933Z,8.1
2023-12-13T06:47:51.185Z,8.1
2023-12-13T06:57:51.311Z,8.2
2023-12-13T07:07:51.558Z,8.1
2023-12-13T07:17:51.714Z,8.1
2023-12-13T07:27:51.931Z,8.1
2023-12-13T07:37:52.141Z,8.2
2023-12-13T07:48:00.105Z,8.2
2023-12-13T07:57:52.534Z,8.1
2023-12-13T08:07:52.745Z,8.2
2023-12-13T08:17:52.999Z,8.2
2023-12-13T08:27:53.110Z,8.4
2023-12-13T11:37:56.925Z,8.8
2023-12-13T11:57:57.324Z,8.4
2023-12-13T12:17:57.720Z,8.4
2023-12-13T12:37:58.173Z,8.3
2023-12-13T12:57:58.527Z,8.2
2023-12-13T13:07:58.755Z,8.2
2023-12-13T13:17:58.923Z,8
2023-12-13T13:27:59.108Z,7.9
2023-12-13T13:37:59.342Z,7.9
2023-12-13T13:47:59.541Z,7.8
2023-12-13T13:57:59.714Z,7.8
2023-12-13T14:07:59.953Z,7.8
2023-12-13T14:18:01.162Z,7.8
2023-12-13T14:28:00.369Z,7.8
2023-12-13T14:38:00.508Z,7.8
2023-12-13T14:48:00.829Z,7.8
2023-12-13T14:58:00.897Z,7.8
2023-12-13T15:08:01.151Z,7.7
2023-12-13T15:18:01.342Z,7.7
2023-12-13T15:28:01.548Z,7.7
2023-12-13T15:38:01.768Z,7.7
2023-12-13T15:48:01.990Z,7.6
2023-12-13T15:58:02.121Z,7.6
2023-12-13T16:18:02.575Z,7.7
2023-12-13T16:28:02.811Z,7.8
2023-12-13T16:38:02.946Z,7.7
2023-12-13T16:48:03.228Z,7.6
2023-12-13T16:58:03.337Z,7.6
2023-12-13T17:08:03.529Z,7.6
2023-12-13T17:18:03.744Z,7.6
2023-12-13T17:28:03.939Z,7.5
2023-12-13T17:38:04.168Z,7.6
2023-12-13T17:48:04.337Z,7.6
2023-12-13T17:58:04.534Z,7.6
2023-12-13T18:08:04.781Z,7.6
2023-12-13T18:18:05.014Z,7.5
2023-12-13T18:28:05.148Z,7.5
2023-12-13T18:38:05.346Z,7.4
2023-12-13T18:48:05.700Z,7.3
2023-12-13T18:58:05.722Z,7.3
2023-12-13T19:08:05.956Z,7.4
2023-12-13T19:18:06.179Z,7.4
2023-12-13T19:28:06.328Z,7.3
2023-12-13T19:38:08.692Z,7.3
2023-12-13T19:48:06.830Z,7.3
2023-12-13T20:18:07.379Z,7.3
2023-12-13T20:38:07.768Z,7.4
2023-12-13T20:58:08.150Z,7.5
